createdAt,value
2022-11-05T00:00:38.097Z,40.78
2022-11-05T00:03:28.454Z,42.05
2022-11-05T00:06:14.335Z,45.33
2022-11-05T00:09:00.484Z,45.03
2022-11-05T00:11:49.319Z,42.05
2022-11-05T00:14:35.493Z,45.92
2022-11-05T00:17:02.627Z,42.95
2022-11-05T00:19:29.972Z,47.88
2022-11-05T00:22:15.461Z,43.25
2022-11-05T00:25:03.980Z,41.63
2022-11-05T00:27:35.599Z,44.45
2022-11-05T00:30:07.389Z,46.30
2022-11-05T00:32:41.400Z,44.72
2022-11-05T00:37:43.306Z,41.17
2022-11-05T00:40:19.444Z,45.30
2022-11-05T00:43:12.518Z,42.95
2022-11-05T00:45:41.075Z,43.08
2022-11-05T00:48:26.553Z,45.05
2022-11-05T00:50:56.701Z,47.47
2022-11-05T00:53:28.381Z,39.50
2022-11-05T00:56:02.920Z,49.50
2022-11-05T00:58:29.961Z,42.72
2022-11-05T01:01:01.148Z,45.05
2022-11-05T01:03:30.901Z,52.55
2022-11-05T01:06:05.445Z,46.53
2022-11-05T01:08:34.727Z,44.33
2022-11-05T01:11:12.406Z,48.65
2022-11-05T01:13:40.031Z,46.65
2022-11-05T01:16:10.073Z,46.92
2022-11-05T01:18:38.921Z,41.75
2022-11-05T01:21:15.918Z,50.70
2022-11-05T01:23:43.339Z,44.40
2022-11-05T01:26:12.952Z,54.58
2022-11-05T01:28:40.421Z,48.08
2022-11-05T01:31:10.551Z,46.60
2022-11-05T01:33:37.597Z,48.53
2022-11-05T01:36:07.819Z,48.45
2022-11-05T01:38:37.865Z,44.80
2022-11-05T01:41:10.172Z,45.92
2022-11-05T01:43:59.187Z,45.00
2022-11-05T01:46:38.684Z,44.75
2022-11-05T01:49:18.669Z,41.17
2022-11-05T01:51:48.920Z,51.15
2022-11-05T01:54:21.120Z,47.15
2022-11-05T01:56:58.421Z,54.70
2022-11-05T01:59:33.910Z,44.85
2022-11-05T02:02:04.804Z,43.50
2022-11-05T02:04:36.169Z,45.25
2022-11-05T02:07:07.664Z,52.57
2022-11-05T02:09:52.011Z,43.15
2022-11-05T02:12:23.028Z,48.92
2022-11-05T02:14:50.211Z,44.55
2022-11-05T02:17:48.473Z,49.88
2022-11-05T02:20:23.747Z,49.45
2022-11-05T02:23:12.887Z,51.72
2022-11-05T02:26:10.213Z,43.60
2022-11-05T02:29:11.683Z,40.63
2022-11-05T02:31:49.936Z,43.92
2022-11-05T02:34:30.236Z,43.83
2022-11-05T02:37:05.809Z,45.65
2022-11-05T02:39:50.841Z,49.30
2022-11-05T02:42:43.161Z,47.58
2022-11-05T02:45:15.541Z,44.70
2022-11-05T02:48:11.429Z,48.10
2022-11-05T02:51:12.922Z,50.92
2022-11-05T02:53:57.515Z,43.08
2022-11-05T02:56:33.244Z,44.33
2022-11-05T02:59:05.203Z,44.63
2022-11-05T03:04:11.887Z,44.88
2022-11-05T03:07:00.475Z,47.63
2022-11-05T03:10:12.063Z,40.38
2022-11-05T03:13:22.678Z,48.65
2022-11-05T03:16:02.350Z,47.20
2022-11-05T03:18:40.572Z,45.78
2022-11-05T03:21:21.683Z,47.78
2022-11-05T03:24:00.814Z,47.75
2022-11-05T03:26:35.843Z,41.45
2022-11-05T03:29:21.689Z,41.88
2022-11-05T03:31:50.904Z,44.28
2022-11-05T03:34:21.830Z,46.05
2022-11-05T03:36:55.704Z,42.83
2022-11-05T03:39:34.916Z,46.08
2022-11-05T03:42:04.991Z,45.00
2022-11-05T03:44:36.569Z,35.67
2022-11-05T03:47:11.561Z,38.08
2022-11-05T03:49:55.521Z,35.10
2022-11-05T03:52:27.905Z,44.33
2022-11-05T03:54:57.707Z,42.88
2022-11-05T03:57:31.397Z,38.45
2022-11-05T04:00:01.135Z,38.05
2022-11-05T04:02:28.452Z,40.22
2022-11-05T04:04:55.965Z,37.38
2022-11-05T04:07:41.577Z,31.52
2022-11-05T04:10:28.172Z,39.80
2022-11-05T04:13:14.218Z,34.38
2022-11-05T04:16:00.277Z,28.95
2022-11-05T04:18:27.521Z,33.03
2022-11-05T04:21:13.280Z,26.67
2022-11-05T04:23:59.498Z,32.50
2022-11-05T04:26:26.850Z,30.60
2022-11-05T04:29:15.030Z,31.13
2022-11-05T04:31:47.209Z,25.75
2022-11-05T04:34:18.769Z,26.63
2022-11-05T04:36:46.822Z,22.85
2022-11-05T04:39:20.737Z,23.25
2022-11-05T04:41:48.833Z,25.30
2022-11-05T04:44:16.902Z,20.88
2022-11-05T04:46:51.772Z,22.40
2022-11-05T04:49:21.509Z,27.70
2022-11-05T04:51:53.535Z,23.42
2022-11-05T04:54:20.697Z,25.92
2022-11-05T04:56:48.103Z,35.33
2022-11-05T04:59:17.297Z,19.35
2022-11-05T05:01:44.723Z,20.73
2022-11-05T05:04:11.848Z,19.63
2022-11-05T05:06:39.505Z,17.25
2022-11-05T05:09:06.696Z,20.30
2022-11-05T05:11:34.012Z,22.77
2022-11-05T05:14:01.072Z,30.98
2022-11-05T05:16:28.561Z,24.63
2022-11-05T05:18:57.781Z,27.98
2022-11-05T05:21:39.711Z,21.85
2022-11-05T05:24:10.317Z,21.77
2022-11-05T05:26:43.150Z,24.40
2022-11-05T05:29:11.304Z,22.08
2022-11-05T05:31:44.282Z,24.98
2022-11-05T05:34:13.039Z,28.00
2022-11-05T05:36:40.672Z,27.58
2022-11-05T05:39:11.172Z,26.55
2022-11-05T05:41:41.280Z,26.42
2022-11-05T05:44:15.075Z,27.77
2022-11-05T05:46:44.940Z,26.52
2022-11-05T05:49:12.667Z,25.67
2022-11-05T05:51:42.879Z,23.67
2022-11-05T05:54:13.319Z,29.20
2022-11-05T05:56:44.204Z,25.02
2022-11-05T05:59:14.670Z,27.95
2022-11-05T06:01:42.290Z,26.35
2022-11-05T06:04:11.724Z,26.60
2022-11-05T06:06:41.411Z,26.63
2022-11-05T06:09:10.572Z,28.63
2022-11-05T06:11:37.992Z,33.22
2022-11-05T06:14:05.157Z,29.42
2022-11-05T06:16:35.783Z,28.33
2022-11-05T06:19:03.112Z,34.88
2022-11-05T06:21:35.021Z,36.28
2022-11-05T06:24:02.973Z,26.08
2022-11-05T06:26:30.951Z,33.22
2022-11-05T06:28:58.126Z,30.58
2022-11-05T06:31:25.548Z,31.08
2022-11-05T06:33:57.107Z,28.55
2022-11-05T06:36:26.949Z,28.98
2022-11-05T06:38:56.362Z,26.48
2022-11-05T06:41:26.125Z,30.75
2022-11-05T06:43:53.224Z,29.15
2022-11-05T06:46:20.673Z,31.50
2022-11-05T06:48:51.102Z,28.17
2022-11-05T06:51:18.657Z,28.33
2022-11-05T06:53:45.848Z,32.90
2022-11-05T06:56:15.573Z,41.28
2022-11-05T06:58:42.681Z,36.97
2022-11-05T07:01:10.828Z,40.95
2022-11-05T07:03:40.577Z,48.78
2022-11-05T07:06:08.171Z,62.03
2022-11-05T07:08:37.496Z,75.47
2022-11-05T07:11:10.059Z,75.13
2022-11-05T07:13:39.588Z,82.38
2022-11-05T07:16:09.093Z,93.25
2022-11-05T07:18:36.702Z,85.65
2022-11-05T07:21:06.625Z,92.53
2022-11-05T07:23:36.094Z,99.28
2022-11-05T07:26:06.715Z,91.57
2022-11-05T07:28:33.858Z,94.57
2022-11-05T07:31:01.316Z,134.30
2022-11-05T07:33:33.716Z,117.10
2022-11-05T07:36:04.183Z,98.65
2022-11-05T07:38:36.084Z,97.25
2022-11-05T07:41:06.393Z,107.55
2022-11-05T07:43:33.456Z,104.72
2022-11-05T07:46:00.771Z,107.15
2022-11-05T07:48:27.930Z,104.72
2022-11-05T07:50:55.494Z,105.88
2022-11-05T07:53:24.916Z,89.10
2022-11-05T07:55:53.132Z,88.95
2022-11-05T07:58:25.073Z,94.75
2022-11-05T08:00:59.221Z,86.90
2022-11-05T08:03:31.274Z,86.03
2022-11-05T08:05:58.870Z,95.32
2022-11-05T08:08:28.275Z,89.55
2022-11-05T08:11:03.424Z,98.25
2022-11-05T08:13:30.655Z,98.25
2022-11-05T08:16:01.686Z,97.07
2022-11-05T08:18:32.684Z,94.07
2022-11-05T08:21:02.805Z,90.37
2022-11-05T08:23:31.384Z,109.85
2022-11-05T08:26:03.545Z,95.63
2022-11-05T08:28:35.350Z,95.80
2022-11-05T08:31:05.079Z,100.97
2022-11-05T08:33:34.942Z,87.95
2022-11-05T08:36:04.104Z,91.40
2022-11-05T08:38:31.828Z,85.55
2022-11-05T08:40:59.521Z,89.97
2022-11-05T08:43:31.363Z,94.13
2022-11-05T08:46:02.351Z,96.53
2022-11-05T08:48:32.221Z,82.30
2022-11-05T08:51:00.921Z,77.60
2022-11-05T08:53:30.464Z,65.22
2022-11-05T08:56:00.837Z,60.70
2022-11-05T08:58:30.873Z,60.55
2022-11-05T09:01:04.947Z,58.25
2022-11-05T09:03:32.711Z,62.42
2022-11-05T09:06:00.213Z,62.28
2022-11-05T09:08:29.939Z,60.28
2022-11-05T09:11:00.086Z,57.83
2022-11-05T09:13:27.727Z,56.72
2022-11-05T09:15:57.834Z,60.38
2022-11-05T09:18:29.807Z,56.03
2022-11-05T09:20:57.128Z,59.03
2022-11-05T09:23:24.246Z,57.45
2022-11-05T09:25:53.888Z,53.90
2022-11-05T09:28:24.520Z,57.75
2022-11-05T09:30:56.935Z,51.05
2022-11-05T09:33:25.904Z,54.47
2022-11-05T09:35:53.862Z,51.25
2022-11-05T09:38:25.592Z,55.90
2022-11-05T09:41:07.789Z,49.92
2022-11-05T09:43:44.496Z,55.70
2022-11-05T09:46:23.603Z,69.65
2022-11-05T09:49:02.335Z,45.85
2022-11-05T09:51:34.176Z,44.17
2022-11-05T09:54:03.633Z,45.38
2022-11-05T09:56:34.221Z,43.38
2022-11-05T09:59:26.788Z,46.13
2022-11-05T10:02:10.352Z,48.40
2022-11-05T10:04:39.290Z,39.75
2022-11-05T10:07:14.520Z,41.58
2022-11-05T10:09:47.672Z,40.60
2022-11-05T10:12:50.839Z,40.67
2022-11-05T10:15:24.837Z,42.88
2022-11-05T10:18:03.386Z,41.95
2022-11-05T10:20:39.121Z,42.67
2022-11-05T10:23:21.672Z,40.72
2022-11-05T10:25:58.228Z,40.50
2022-11-05T10:28:33.465Z,35.83
2022-11-05T10:33:34.009Z,42.63
2022-11-05T10:36:10.386Z,39.15
2022-11-05T10:38:37.753Z,36.88
2022-11-05T10:41:23.513Z,31.20
2022-11-05T10:43:55.567Z,33.47
2022-11-05T10:46:32.479Z,32.28
2022-11-05T10:49:15.183Z,36.22
2022-11-05T10:51:43.938Z,33.20
2022-11-05T10:54:19.237Z,33.53
2022-11-05T10:56:47.704Z,35.80
2022-11-05T10:59:25.543Z,30.10
2022-11-05T11:02:14.215Z,34.72
2022-11-05T11:04:50.846Z,33.20
2022-11-05T11:07:23.529Z,28.27
2022-11-05T11:09:53.792Z,30.17
2022-11-05T11:12:27.478Z,29.77
2022-11-05T11:15:21.901Z,35.85
2022-11-05T11:17:53.961Z,27.10
2022-11-05T11:23:16.480Z,22.38
2022-11-05T11:26:00.683Z,24.90
2022-11-05T11:28:36.519Z,21.40
2022-11-05T11:31:11.199Z,20.63
2022-11-05T11:33:46.597Z,25.08
2022-11-05T11:36:16.788Z,23.77
2022-11-05T11:38:46.418Z,20.05
2022-11-05T11:41:27.059Z,23.10
2022-11-05T11:44:03.056Z,19.67
2022-11-05T11:46:34.258Z,18.05
2022-11-05T11:49:02.238Z,19.33
2022-11-05T11:51:36.613Z,23.17
2022-11-05T11:54:17.902Z,23.67
2022-11-05T11:56:47.445Z,18.73
2022-11-05T11:59:46.814Z,22.13
2022-11-05T12:02:38.783Z,20.50
2022-11-05T12:05:22.605Z,23.08
2022-11-05T12:07:58.108Z,19.23
2022-11-05T12:10:45.716Z,24.13
2022-11-05T12:13:19.364Z,19.35
2022-11-05T12:15:52.770Z,17.90
2022-11-05T12:18:54.970Z,21.67
2022-11-05T12:22:00.431Z,20.67
2022-11-05T12:24:39.153Z,18.42
2022-11-05T12:27:44.271Z,17.52
2022-11-05T12:30:29.701Z,14.52
2022-11-05T12:33:21.962Z,21.25
2022-11-05T12:36:15.567Z,18.27
2022-11-05T12:39:13.265Z,16.85
2022-11-05T12:41:54.655Z,17.95
2022-11-05T12:44:50.898Z,15.93
2022-11-05T12:47:31.913Z,14.60
2022-11-05T12:50:04.641Z,13.55
2022-11-05T12:52:43.342Z,15.88
2022-11-05T12:55:19.012Z,14.90
2022-11-05T12:57:49.681Z,14.45
2022-11-05T13:00:29.252Z,18.08
2022-11-05T13:02:56.647Z,14.38
2022-11-05T13:05:37.729Z,15.20
2022-11-05T13:08:28.535Z,16.15
2022-11-05T13:11:06.645Z,15.13
2022-11-05T13:14:00.537Z,21.65
2022-11-05T13:16:38.655Z,12.40
2022-11-05T13:19:25.160Z,12.35
2022-11-05T13:22:07.919Z,16.05
2022-11-05T13:24:45.915Z,11.43
2022-11-05T13:27:48.119Z,11.13
2022-11-05T13:30:21.197Z,10.32
2022-11-05T13:32:55.551Z,9.65
2022-11-05T13:35:27.872Z,8.93
2022-11-05T13:38:18.006Z,12.68
2022-11-05T13:43:35.906Z,14.35
2022-11-05T13:46:28.071Z,10.35
2022-11-05T13:49:09.246Z,8.05
2022-11-05T13:51:57.928Z,13.38
2022-11-05T13:55:06.394Z,9.50
2022-11-05T13:57:42.840Z,9.40
2022-11-05T14:00:34.822Z,10.23
2022-11-05T14:03:18.948Z,13.48
2022-11-05T14:05:59.446Z,6.70
2022-11-05T14:08:28.594Z,9.68
2022-11-05T14:11:03.326Z,8.43
2022-11-05T14:13:42.474Z,7.45
2022-11-05T14:16:23.700Z,10.07
2022-11-05T14:18:55.954Z,6.57
2022-11-05T14:21:26.175Z,7.57
2022-11-05T14:24:23.361Z,10.30
2022-11-05T14:27:02.319Z,13.02
2022-11-05T14:29:43.688Z,10.77
2022-11-05T14:32:19.827Z,10.18
2022-11-05T14:35:31.420Z,8.35
2022-11-05T14:38:00.916Z,10.60
2022-11-05T14:40:39.621Z,12.40
2022-11-05T14:43:23.549Z,9.45
2022-11-05T14:46:03.683Z,12.02
2022-11-05T14:48:43.435Z,8.70
2022-11-05T14:51:31.617Z,9.68
2022-11-05T14:54:31.455Z,10.40
2022-11-05T14:57:02.183Z,10.85
2022-11-05T14:59:54.506Z,18.75
2022-11-05T15:02:33.049Z,12.18
2022-11-05T15:05:38.027Z,14.07
2022-11-05T15:08:34.395Z,16.33
2022-11-05T15:11:35.624Z,12.30
2022-11-05T15:14:08.398Z,12.27
2022-11-05T15:16:44.698Z,9.07
2022-11-05T15:19:31.521Z,20.40
2022-11-05T15:22:18.442Z,9.23
2022-11-05T15:24:49.299Z,10.98
2022-11-05T15:27:25.290Z,13.80
2022-11-05T15:29:52.694Z,12.00
2022-11-05T15:32:26.591Z,12.82
2022-11-05T15:34:56.018Z,17.02
2022-11-05T15:37:27.680Z,15.17
2022-11-05T15:39:55.642Z,14.77
2022-11-05T15:42:27.748Z,13.48
2022-11-05T15:44:59.088Z,20.15
2022-11-05T15:47:36.385Z,22.77
2022-11-05T15:50:15.004Z,18.83
2022-11-05T15:52:51.597Z,14.18
2022-11-05T15:55:20.177Z,13.32
2022-11-05T15:57:51.986Z,18.90
2022-11-05T16:00:26.766Z,16.75
2022-11-05T16:02:57.020Z,12.00
2022-11-05T16:05:26.871Z,17.85
2022-11-05T16:07:57.368Z,16.42
2022-11-05T16:10:48.989Z,15.32
2022-11-05T16:13:39.939Z,12.25
2022-11-05T16:16:15.136Z,10.88
2022-11-05T16:18:44.166Z,18.50
2022-11-05T16:21:22.769Z,19.77
2022-11-05T16:24:00.279Z,14.48
2022-11-05T16:29:35.618Z,17.40
2022-11-05T16:32:30.218Z,15.57
2022-11-05T16:35:04.037Z,18.08
2022-11-05T16:37:51.678Z,18.15
2022-11-05T16:40:26.133Z,18.65
2022-11-05T16:43:00.166Z,22.70
2022-11-05T16:45:41.073Z,27.35
2022-11-05T16:48:13.784Z,19.30
2022-11-05T16:50:44.696Z,24.65
2022-11-05T16:53:12.321Z,23.60
2022-11-05T16:55:42.042Z,15.10
2022-11-05T16:58:26.113Z,24.02
2022-11-05T17:01:08.091Z,20.20
2022-11-05T17:03:35.312Z,19.45
2022-11-05T17:06:05.171Z,19.20
2022-11-05T17:08:35.036Z,23.73
2022-11-05T17:11:02.559Z,28.98
2022-11-05T17:13:32.295Z,24.25
2022-11-05T17:15:59.822Z,26.50
2022-11-05T17:18:27.122Z,25.10
2022-11-05T17:20:55.641Z,31.40
2022-11-05T17:23:26.612Z,17.67
2022-11-05T17:26:01.136Z,21.25
2022-11-05T17:28:31.376Z,28.75
2022-11-05T17:31:03.221Z,28.10
2022-11-05T17:33:32.649Z,26.80
2022-11-05T17:36:04.892Z,19.05
2022-11-05T17:38:32.169Z,27.45
2022-11-05T17:41:04.777Z,23.33
2022-11-05T17:43:34.426Z,27.90
2022-11-05T17:46:08.813Z,36.13
2022-11-05T17:48:39.871Z,24.38
2022-11-05T17:51:18.530Z,30.52
2022-11-05T17:53:49.404Z,25.42
2022-11-05T17:56:32.498Z,25.23
2022-11-05T17:59:03.506Z,26.02
2022-11-05T18:01:37.456Z,17.67
2022-11-05T18:04:09.168Z,25.80
2022-11-05T18:06:41.116Z,22.95
2022-11-05T18:09:14.272Z,23.70
2022-11-05T18:11:44.902Z,25.92
2022-11-05T18:14:12.057Z,30.88
2022-11-05T18:16:41.807Z,24.45
2022-11-05T18:19:11.741Z,26.88
2022-11-05T18:21:41.729Z,29.17
2022-11-05T18:24:09.074Z,28.90
2022-11-05T18:26:40.930Z,22.02
2022-11-05T18:29:08.248Z,30.08
2022-11-05T18:31:35.625Z,30.80
2022-11-05T18:34:02.836Z,26.75
2022-11-05T18:36:32.372Z,20.80
2022-11-05T18:39:03.111Z,29.08
2022-11-05T18:41:30.752Z,22.60
2022-11-05T18:44:04.057Z,28.38
2022-11-05T18:49:22.378Z,29.58
2022-11-05T18:51:49.879Z,22.00
2022-11-05T18:54:17.431Z,31.63
2022-11-05T18:56:45.747Z,30.75
2022-11-05T19:04:46.772Z,36.72
2022-11-05T19:07:27.564Z,33.03
2022-11-05T19:10:02.392Z,38.22
2022-11-05T19:12:33.604Z,29.67
2022-11-05T19:15:03.710Z,37.90
2022-11-05T19:20:01.076Z,32.65
2022-11-05T19:22:28.783Z,30.08
2022-11-05T19:24:56.015Z,31.05
2022-11-05T19:27:23.508Z,24.33
2022-11-05T19:29:55.687Z,26.17
2022-11-05T19:32:23.966Z,30.75
2022-11-05T19:34:53.447Z,34.42
2022-11-05T19:37:23.092Z,19.02
2022-11-05T19:39:50.212Z,26.88
2022-11-05T19:42:17.846Z,32.65
2022-11-05T19:44:47.783Z,38.10
2022-11-05T19:47:15.513Z,31.98
2022-11-05T19:49:44.220Z,27.17
2022-11-05T19:52:11.675Z,35.33
2022-11-05T19:54:38.961Z,38.03
2022-11-05T19:57:06.538Z,23.58
2022-11-05T19:59:35.781Z,25.02
2022-11-05T20:02:06.891Z,29.45
2022-11-05T20:04:35.709Z,34.65
2022-11-05T20:07:03.253Z,42.38
2022-11-05T20:09:32.752Z,28.75
2022-11-05T20:12:00.477Z,35.97
2022-11-05T20:14:27.808Z,33.15
2022-11-05T20:16:55.241Z,31.58
2022-11-05T20:19:24.940Z,43.45
2022-11-05T20:21:52.373Z,31.30
2022-11-05T20:24:25.308Z,31.77
2022-11-05T20:26:58.006Z,26.08
2022-11-05T20:29:30.551Z,32.78
2022-11-05T20:32:09.349Z,28.90
2022-11-05T20:34:36.637Z,34.25
2022-11-05T20:37:06.751Z,25.27
2022-11-05T20:39:39.687Z,26.38
2022-11-05T20:42:12.311Z,36.67
2022-11-05T20:44:43.951Z,31.73
2022-11-05T20:47:11.938Z,41.60
2022-11-05T20:49:39.314Z,35.80
2022-11-05T20:52:12.223Z,38.90
2022-11-05T20:54:39.542Z,39.30
2022-11-05T20:57:11.609Z,30.73
2022-11-05T20:59:43.677Z,31.98
2022-11-05T21:04:45.854Z,28.17
2022-11-05T21:07:15.438Z,31.42
2022-11-05T21:09:47.346Z,32.83
2022-11-05T21:12:14.667Z,32.30
2022-11-05T21:14:46.610Z,37.10
2022-11-05T21:17:14.497Z,38.92
2022-11-05T21:19:41.780Z,34.03
2022-11-05T21:22:09.501Z,40.72
2022-11-05T21:24:36.769Z,29.65
2022-11-05T21:27:04.237Z,31.52
2022-11-05T21:29:31.470Z,40.28
2022-11-05T21:32:03.718Z,34.42
2022-11-05T21:34:33.052Z,37.97
2022-11-05T21:37:02.926Z,37.75
2022-11-05T21:39:30.180Z,27.85
2022-11-05T21:41:59.793Z,39.88
2022-11-05T21:44:27.084Z,30.92
2022-11-05T21:46:59.047Z,39.90
2022-11-05T21:49:28.824Z,32.75
2022-11-05T21:52:15.533Z,30.27
2022-11-05T21:55:01.249Z,30.40
2022-11-05T21:57:52.852Z,33.05
2022-11-05T22:00:22.252Z,32.45
2022-11-05T22:02:52.571Z,28.48
2022-11-05T22:05:19.816Z,39.33
2022-11-05T22:07:47.265Z,35.85
2022-11-05T22:10:16.507Z,34.40
2022-11-05T22:12:45.219Z,37.30
2022-11-05T22:15:12.886Z,26.15
2022-11-05T22:17:45.320Z,30.33
2022-11-05T22:20:17.394Z,30.60
2022-11-05T22:22:45.177Z,28.85
2022-11-05T22:25:13.366Z,33.88
2022-11-05T22:27:40.736Z,44.53
2022-11-05T22:30:10.452Z,32.35
2022-11-05T22:32:42.668Z,34.20
2022-11-05T22:35:14.698Z,33.33
2022-11-05T22:37:42.138Z,38.97
2022-11-05T22:40:09.770Z,31.75
2022-11-05T22:42:39.930Z,29.98
2022-11-05T22:45:07.603Z,42.03
2022-11-05T22:47:47.964Z,50.22
2022-11-05T22:50:17.752Z,44.80
2022-11-05T22:52:46.079Z,41.00
2022-11-05T22:55:18.496Z,37.35
2022-11-05T22:57:46.031Z,37.65
2022-11-05T23:00:17.194Z,35.40
2022-11-05T23:02:46.862Z,40.92
2022-11-05T23:05:21.210Z,33.22
2022-11-05T23:08:07.308Z,33.58
2022-11-05T23:10:53.186Z,41.33
2022-11-05T23:13:20.554Z,35.42
2022-11-05T23:16:06.559Z,46.38
2022-11-05T23:18:52.872Z,39.40
2022-11-05T23:21:38.591Z,41.97
2022-11-05T23:24:08.596Z,44.10
2022-11-05T23:26:51.682Z,33.72
2022-11-05T23:29:21.273Z,38.75
2022-11-05T23:32:10.384Z,41.55
2022-11-05T23:34:38.266Z,37.10
2022-11-05T23:37:26.340Z,35.33
2022-11-05T23:39:54.110Z,53.83
2022-11-05T23:42:40.716Z,36.08
2022-11-05T23:45:28.259Z,43.45
2022-11-05T23:48:17.309Z,38.42
2022-11-05T23:51:06.286Z,37.63
2022-11-05T23:53:39.372Z,33.67
2022-11-05T23:56:10.516Z,43.97
2022-11-05T23:58:41.733Z,36.90
